This is the latest recevied weather packets stored in our database for station/object KC5EZZ-2. If no packets are shown the sender has not sent any weather packets the latest 10 day(s).
| Time | Temp. | Humidity | Pressure | Rain* | Wind** | Luminosity | Snow |
|---|---|---|---|---|---|---|---|
| 1777443213 | 23.33° C | - | - | 0 mm | 3.13 m/s, 3° | - | - |
| 1777442914 | 23.33° C | - | - | 0 mm | 5.36 m/s, 356° | - | - |
| 1777442614 | 23.89° C | - | - | 0 mm | 5.36 m/s, 333° | - | - |
| 1777442311 | 24.44° C | - | - | 0 mm | 4.92 m/s, 343° | - | - |
| 1777442011 | 24.44° C | - | - | 0 mm | 3.58 m/s, 314° | - | - |
| 1777441712 | 25° C | - | - | 0 mm | 1.79 m/s, 352° | - | - |
| 1777441410 | 25° C | - | - | 0 mm | 4.02 m/s, 349° | - | - |
| 1777441110 | 25.56° C | - | - | 0 mm | 3.13 m/s, 10° | - | - |
| 1777440811 | 25.56° C | - | - | 0 mm | 3.13 m/s, 20° | - | - |
| 1777440508 | 24.44° C | - | - | 0 mm | 4.47 m/s, 354° | - | - |
| 1777440209 | 25° C | - | - | 0 mm | 4.02 m/s, 346° | - | - |
| 1777439909 | 25.56° C | - | - | 0 mm | 2.68 m/s, 153° | - | - |
| 1777439607 | 25° C | - | - | 0 mm | 4.02 m/s, 194° | - | - |
| 1777439307 | 25° C | - | - | 0 mm | 3.58 m/s, 183° | - | - |
| 1777439006 | 25° C | - | - | 0 mm | 3.58 m/s, 176° | - | - |
| 1777438703 | 25° C | - | - | 0 mm | 3.58 m/s, 174° | - | - |
| 1777438404 | 25° C | - | - | 0 mm | 3.13 m/s, 159° | - | - |
| 1777438103 | 25° C | - | - | 0 mm | 3.13 m/s, 166° | - | - |
| 1777437801 | 25° C | - | - | 0 mm | 3.13 m/s, 159° | - | - |
| 1777437502 | 25.56° C | - | - | 0 mm | 3.13 m/s, 156° | - | - |
| 1777437202 | 25.56° C | - | - | 0 mm | 3.58 m/s, 173° | - | - |
| 1777436899 | 25.56° C | - | - | 0 mm | 3.58 m/s, 170° | - | - |
| 1777436601 | 25.56° C | - | - | 0 mm | 3.58 m/s, 181° | - | - |
| 1777436300 | 26.11° C | - | - | 0 mm | 4.02 m/s, 159° | - | - |
| 1777435998 | 26.11° C | - | - | 0 mm | 3.58 m/s, 186° | - | - |
* Rain latest hour (hover to see other rain measurements)
** Current wind speed in m/s (hover to see current wind gust speed)